createdAt,value
2022-11-09T00:01:01.924Z,1.92
2022-11-09T00:03:28.336Z,2.95
2022-11-09T00:05:56.606Z,2.30
2022-11-09T00:08:23.034Z,2.40
2022-11-09T00:10:49.436Z,2.58
2022-11-09T00:13:15.943Z,2.50
2022-11-09T00:15:42.509Z,2.50
2022-11-09T00:18:08.904Z,2.80
2022-11-09T00:20:35.290Z,2.58
2022-11-09T00:23:01.683Z,2.42
2022-11-09T00:25:28.135Z,3.38
2022-11-09T00:27:54.579Z,2.50
2022-11-09T00:30:21.036Z,2.50
2022-11-09T00:32:48.035Z,2.63
2022-11-09T00:35:14.570Z,2.70
2022-11-09T00:37:41.023Z,2.63
2022-11-09T00:40:08.678Z,2.15
2022-11-09T00:42:35.062Z,2.20
2022-11-09T00:45:01.467Z,2.78
2022-11-09T00:47:27.874Z,2.53
2022-11-09T00:49:54.342Z,2.35
2022-11-09T00:52:20.804Z,2.50
2022-11-09T00:54:47.287Z,2.30
2022-11-09T00:57:14.055Z,2.42
2022-11-09T00:59:40.571Z,2.08
2022-11-09T01:02:06.984Z,2.72
2022-11-09T01:04:33.385Z,2.03
2022-11-09T01:06:59.898Z,2.17
2022-11-09T01:09:26.409Z,2.20
2022-11-09T01:11:52.876Z,2.40
2022-11-09T01:14:19.332Z,2.58
2022-11-09T01:16:45.751Z,2.08
2022-11-09T01:19:12.272Z,2.22
2022-11-09T01:21:38.734Z,2.10
2022-11-09T01:24:05.693Z,2.88
2022-11-09T01:26:32.471Z,2.00
2022-11-09T01:28:58.878Z,2.28
2022-11-09T01:31:25.635Z,2.25
2022-11-09T01:33:52.117Z,2.20
2022-11-09T01:36:21.084Z,1.98
2022-11-09T01:38:48.127Z,1.70
2022-11-09T01:41:18.447Z,1.98
2022-11-09T01:43:46.794Z,2.40
2022-11-09T01:46:30.140Z,2.10
2022-11-09T01:49:01.768Z,2.33
2022-11-09T01:51:33.860Z,2.38
2022-11-09T01:54:06.023Z,2.60
2022-11-09T01:56:33.076Z,2.30
2022-11-09T01:59:03.893Z,2.38
2022-11-09T02:01:31.828Z,2.50
2022-11-09T02:04:23.889Z,2.35
2022-11-09T02:09:29.169Z,2.85
2022-11-09T02:11:56.309Z,2.08
2022-11-09T02:14:25.308Z,2.05
2022-11-09T02:16:51.889Z,2.35
2022-11-09T02:19:18.424Z,2.65
2022-11-09T02:21:45.123Z,2.42
2022-11-09T02:24:12.568Z,2.40
2022-11-09T02:26:45.675Z,2.20
2022-11-09T02:29:17.349Z,2.65
2022-11-09T02:34:16.729Z,2.30
2022-11-09T02:36:45.994Z,2.10
2022-11-09T02:39:16.419Z,2.30
2022-11-09T02:41:46.641Z,2.50
2022-11-09T02:44:15.637Z,2.40
2022-11-09T02:46:42.153Z,1.92
2022-11-09T02:49:08.649Z,2.70
2022-11-09T02:51:35.071Z,1.92
2022-11-09T02:54:01.463Z,2.53
2022-11-09T02:56:27.954Z,1.98
2022-11-09T02:58:54.632Z,2.17
2022-11-09T03:01:21.114Z,1.90
2022-11-09T03:03:47.982Z,2.20
2022-11-09T03:06:14.376Z,2.10
2022-11-09T03:08:40.785Z,1.88
2022-11-09T03:11:07.432Z,2.50
2022-11-09T03:13:34.675Z,2.22
2022-11-09T03:16:06.133Z,2.22
2022-11-09T03:18:32.632Z,2.08
2022-11-09T03:21:06.428Z,2.47
2022-11-09T03:23:33.313Z,2.55
2022-11-09T03:25:59.718Z,1.90
2022-11-09T03:28:26.375Z,2.80
2022-11-09T03:30:53.120Z,2.30
2022-11-09T03:33:20.303Z,2.47
2022-11-09T03:35:46.911Z,2.35
2022-11-09T03:38:13.501Z,2.47
2022-11-09T03:40:40.289Z,2.53
2022-11-09T03:43:06.728Z,2.25
2022-11-09T03:45:33.332Z,2.55
2022-11-09T03:48:02.621Z,2.50
2022-11-09T03:50:31.883Z,2.53
2022-11-09T03:52:59.006Z,2.75
2022-11-09T03:55:25.864Z,2.25
2022-11-09T03:57:52.387Z,2.45
2022-11-09T04:00:21.544Z,2.33
2022-11-09T04:02:48.131Z,2.47
2022-11-09T04:05:15.265Z,2.30
2022-11-09T04:07:48.489Z,2.20
2022-11-09T04:10:15.178Z,2.80
2022-11-09T04:12:41.586Z,2.78
2022-11-09T04:15:08.465Z,2.60
2022-11-09T04:17:34.928Z,2.78
2022-11-09T04:20:01.994Z,2.75
2022-11-09T04:22:28.464Z,2.78
2022-11-09T04:24:54.863Z,2.92
2022-11-09T04:27:21.487Z,2.53
2022-11-09T04:29:47.900Z,2.40
2022-11-09T04:32:14.316Z,2.45
2022-11-09T04:34:41.332Z,2.88
2022-11-09T04:37:08.983Z,2.67
2022-11-09T04:39:35.371Z,3.08
2022-11-09T04:42:02.480Z,2.22
2022-11-09T04:44:31.552Z,2.88
2022-11-09T04:46:57.966Z,2.92
2022-11-09T04:49:24.365Z,2.70
2022-11-09T04:51:50.782Z,3.08
2022-11-09T04:54:17.173Z,2.85
2022-11-09T04:56:43.538Z,2.70
2022-11-09T04:59:10.036Z,2.58
2022-11-09T05:01:36.432Z,2.33
2022-11-09T05:04:02.934Z,3.00
2022-11-09T05:06:32.321Z,2.75
2022-11-09T05:09:00.767Z,2.33
2022-11-09T05:11:27.480Z,2.75
2022-11-09T05:13:53.918Z,2.47
2022-11-09T05:16:20.896Z,2.78
2022-11-09T05:18:47.569Z,2.67
2022-11-09T05:21:14.004Z,2.33
2022-11-09T05:27:21.040Z,2.90
2022-11-09T05:29:47.429Z,2.80
2022-11-09T05:32:14.170Z,2.70
2022-11-09T05:34:40.586Z,2.63
2022-11-09T05:37:06.975Z,2.45
2022-11-09T05:39:33.358Z,2.67
2022-11-09T05:41:59.797Z,2.88
2022-11-09T05:44:26.331Z,2.75
2022-11-09T05:46:52.720Z,2.60
2022-11-09T05:49:19.163Z,2.42
2022-11-09T05:51:45.618Z,2.45
2022-11-09T05:54:12.114Z,2.50
2022-11-09T05:56:38.567Z,2.60
2022-11-09T05:59:04.956Z,2.88
2022-11-09T06:01:31.377Z,2.72
2022-11-09T06:03:57.811Z,2.97
2022-11-09T06:06:24.250Z,2.70
2022-11-09T06:08:50.732Z,2.60
2022-11-09T06:11:23.651Z,2.22
2022-11-09T06:13:51.726Z,2.63
2022-11-09T06:16:18.152Z,3.00
2022-11-09T06:18:44.544Z,2.80
2022-11-09T06:21:10.970Z,2.83
2022-11-09T06:23:37.448Z,2.60
2022-11-09T06:26:09.817Z,2.60
2022-11-09T06:28:38.184Z,2.47
2022-11-09T06:31:07.006Z,3.13
2022-11-09T06:33:35.120Z,2.50
2022-11-09T06:36:02.561Z,2.92
2022-11-09T06:38:29.574Z,2.40
2022-11-09T06:40:57.817Z,2.17
2022-11-09T06:43:25.187Z,2.58
2022-11-09T06:45:52.650Z,2.58
2022-11-09T06:48:19.763Z,2.25
2022-11-09T06:50:46.634Z,1.95
2022-11-09T06:53:15.521Z,2.67
2022-11-09T06:55:48.862Z,2.25
2022-11-09T06:58:16.972Z,2.42
2022-11-09T07:00:44.555Z,3.78
2022-11-09T07:03:15.917Z,2.80
2022-11-09T07:05:42.683Z,2.35
2022-11-09T07:08:09.851Z,2.50
2022-11-09T07:10:36.734Z,2.60
2022-11-09T07:13:03.789Z,2.60
2022-11-09T07:15:30.306Z,2.30
2022-11-09T07:18:00.754Z,2.90
2022-11-09T07:20:28.270Z,2.67
2022-11-09T07:22:55.401Z,3.05
2022-11-09T07:25:22.492Z,2.92
2022-11-09T07:27:49.164Z,2.80
2022-11-09T07:30:15.619Z,2.78
2022-11-09T07:35:29.761Z,2.78
2022-11-09T07:38:01.164Z,3.15
2022-11-09T07:40:27.575Z,2.80
2022-11-09T07:42:58.268Z,2.35
2022-11-09T07:45:24.713Z,2.78
2022-11-09T07:47:55.925Z,2.60
2022-11-09T07:50:22.367Z,2.20
2022-11-09T07:52:48.766Z,2.55
2022-11-09T07:55:15.324Z,3.00
2022-11-09T07:57:44.220Z,2.88
2022-11-09T08:00:11.904Z,2.92
2022-11-09T08:02:38.389Z,2.33
2022-11-09T08:05:05.452Z,3.05
2022-11-09T08:07:33.532Z,2.40
2022-11-09T08:10:00.140Z,3.15
2022-11-09T08:12:26.576Z,2.40
2022-11-09T08:14:53.038Z,2.50
2022-11-09T08:17:19.434Z,2.75
2022-11-09T08:19:45.851Z,2.80
2022-11-09T08:22:12.228Z,2.60
2022-11-09T08:24:38.943Z,2.72
2022-11-09T08:27:05.455Z,2.85
2022-11-09T08:29:31.893Z,2.38
2022-11-09T08:31:58.385Z,2.60
2022-11-09T08:34:24.789Z,2.90
2022-11-09T08:36:51.172Z,2.42
2022-11-09T08:39:17.575Z,3.33
2022-11-09T08:41:44.039Z,2.80
2022-11-09T08:44:10.455Z,2.95
2022-11-09T08:46:41.086Z,2.50
2022-11-09T08:49:07.948Z,2.95
2022-11-09T08:51:34.330Z,3.50
2022-11-09T08:54:00.768Z,3.13
2022-11-09T08:56:27.231Z,3.17
2022-11-09T08:58:53.684Z,3.75
2022-11-09T09:01:20.193Z,3.25
2022-11-09T09:03:46.889Z,3.22
2022-11-09T09:06:13.299Z,3.90
2022-11-09T09:08:39.730Z,3.13
2022-11-09T09:11:06.359Z,3.08
2022-11-09T09:13:33.363Z,2.88
2022-11-09T09:16:13.034Z,3.15
2022-11-09T09:18:39.572Z,3.05
2022-11-09T09:21:10.596Z,2.63
2022-11-09T09:23:37.353Z,2.88
2022-11-09T09:26:04.222Z,2.95
2022-11-09T09:28:30.783Z,2.92
2022-11-09T09:30:59.749Z,3.05
2022-11-09T09:33:27.121Z,2.67
2022-11-09T09:35:57.462Z,3.35
2022-11-09T09:38:24.816Z,2.72
2022-11-09T09:40:57.477Z,5.35
2022-11-09T09:43:29.973Z,3.58
2022-11-09T09:45:59.198Z,2.45
2022-11-09T09:48:31.601Z,2.83
2022-11-09T09:51:09.872Z,3.60
2022-11-09T09:53:47.026Z,3.65
2022-11-09T09:56:19.518Z,3.17
2022-11-09T09:58:51.791Z,3.40
2022-11-09T10:01:20.836Z,3.10
2022-11-09T10:03:48.593Z,2.60
2022-11-09T10:06:37.671Z,3.00
2022-11-09T10:09:37.368Z,3.33
2022-11-09T10:12:18.935Z,2.67
2022-11-09T10:15:00.404Z,3.17
2022-11-09T10:17:39.551Z,3.58
2022-11-09T10:20:24.387Z,2.72
2022-11-09T10:22:56.738Z,3.03
2022-11-09T10:25:43.952Z,2.95
2022-11-09T10:28:17.467Z,2.58
2022-11-09T10:30:44.490Z,2.80
2022-11-09T10:33:10.950Z,2.70
2022-11-09T10:35:50.409Z,2.67
2022-11-09T10:38:23.536Z,2.70
2022-11-09T10:40:55.911Z,3.63
2022-11-09T10:43:23.731Z,3.00
2022-11-09T10:46:08.147Z,3.10
2022-11-09T10:48:40.340Z,3.22
2022-11-09T10:51:32.657Z,2.40
2022-11-09T10:54:24.597Z,2.75
2022-11-09T10:57:14.123Z,3.30
2022-11-09T10:59:43.465Z,4.72
2022-11-09T11:02:28.908Z,3.42
2022-11-09T11:05:07.157Z,2.80
2022-11-09T11:07:35.448Z,2.72
2022-11-09T11:10:17.634Z,2.72
2022-11-09T11:13:17.947Z,2.58
2022-11-09T11:15:45.244Z,2.53
2022-11-09T11:18:22.253Z,2.67
2022-11-09T11:20:48.933Z,2.70
2022-11-09T11:23:21.552Z,3.00
2022-11-09T11:25:54.313Z,3.15
2022-11-09T11:28:33.653Z,3.65
2022-11-09T11:31:00.499Z,3.72
2022-11-09T11:33:26.931Z,3.30
2022-11-09T11:36:18.798Z,3.33
2022-11-09T11:39:13.030Z,2.75
2022-11-09T11:41:54.450Z,3.08
2022-11-09T11:44:36.362Z,3.70
2022-11-09T11:49:40.863Z,3.40
2022-11-09T11:52:14.527Z,3.22
2022-11-09T11:54:47.198Z,3.70
2022-11-09T11:57:28.924Z,2.88
2022-11-09T11:59:55.300Z,2.65
2022-11-09T12:02:49.753Z,2.50
2022-11-09T12:05:22.009Z,2.50
2022-11-09T12:07:58.552Z,2.60
2022-11-09T12:10:55.198Z,3.05
2022-11-09T12:13:27.643Z,2.72
2022-11-09T12:16:14.049Z,2.28
2022-11-09T12:19:00.676Z,2.28
2022-11-09T12:21:44.088Z,2.33
2022-11-09T12:24:22.971Z,1.92
2022-11-09T12:27:04.724Z,2.22
2022-11-09T12:29:44.567Z,2.00
2022-11-09T12:32:36.177Z,2.08
2022-11-09T12:35:08.714Z,2.30
2022-11-09T12:37:41.093Z,3.55
2022-11-09T12:40:24.011Z,2.20
2022-11-09T12:43:04.434Z,2.97
2022-11-09T12:45:35.731Z,2.15
2022-11-09T12:48:11.633Z,2.13
2022-11-09T12:50:38.958Z,2.53
2022-11-09T12:53:06.306Z,2.00
2022-11-09T12:55:52.150Z,2.10
2022-11-09T12:58:31.483Z,2.25
2022-11-09T13:01:00.743Z,1.75
2022-11-09T13:03:31.020Z,2.13
2022-11-09T13:06:25.187Z,2.30
2022-11-09T13:09:07.498Z,2.88
2022-11-09T13:11:40.945Z,2.75
2022-11-09T13:14:22.532Z,2.33
2022-11-09T13:16:50.546Z,3.00
2022-11-09T13:19:35.067Z,3.72
2022-11-09T13:22:02.329Z,3.10
2022-11-09T13:24:31.939Z,3.10
2022-11-09T13:27:03.343Z,2.60
2022-11-09T13:29:50.987Z,1.77
2022-11-09T13:32:25.681Z,1.50
2022-11-09T13:34:55.003Z,1.38
2022-11-09T13:37:36.867Z,1.38
2022-11-09T13:40:30.951Z,1.67
2022-11-09T13:43:00.321Z,1.90
2022-11-09T13:45:32.032Z,1.60
2022-11-09T13:47:58.711Z,1.80
2022-11-09T13:50:31.850Z,1.58
2022-11-09T13:52:59.865Z,2.00
2022-11-09T13:55:32.409Z,2.25
2022-11-09T13:58:03.857Z,2.00
2022-11-09T14:00:30.596Z,1.83
2022-11-09T14:03:02.204Z,1.42
2022-11-09T14:05:33.248Z,2.00
2022-11-09T14:08:03.861Z,1.70
2022-11-09T14:10:45.464Z,1.58
2022-11-09T14:13:33.547Z,1.60
2022-11-09T14:16:38.535Z,1.60
2022-11-09T14:19:11.007Z,1.60
2022-11-09T14:21:44.188Z,1.85
2022-11-09T14:24:21.049Z,1.80
2022-11-09T14:27:10.207Z,1.42
2022-11-09T14:29:54.148Z,2.10
2022-11-09T14:32:25.409Z,1.00
2022-11-09T14:34:51.996Z,1.00
2022-11-09T14:37:19.215Z,1.10
2022-11-09T14:39:50.866Z,1.00
2022-11-09T14:42:21.213Z,0.70
2022-11-09T14:44:48.648Z,0.50
2022-11-09T14:47:18.456Z,0.70
2022-11-09T14:49:46.253Z,0.80
2022-11-09T14:52:18.137Z,1.77
2022-11-09T14:54:46.366Z,1.02
2022-11-09T14:57:16.115Z,0.70
2022-11-09T14:59:44.890Z,0.73
2022-11-09T15:02:15.249Z,0.80
2022-11-09T15:04:53.205Z,0.80
2022-11-09T15:07:22.814Z,0.70
2022-11-09T15:09:53.882Z,0.90
2022-11-09T15:12:21.361Z,0.80
2022-11-09T15:14:50.233Z,0.80
2022-11-09T15:17:34.727Z,1.00
2022-11-09T15:20:22.638Z,1.50
2022-11-09T15:22:54.002Z,1.85
2022-11-09T15:25:35.250Z,2.20
2022-11-09T15:28:13.622Z,2.70
2022-11-09T15:30:46.376Z,2.30
2022-11-09T15:33:24.119Z,2.83
2022-11-09T15:36:06.630Z,3.47
2022-11-09T15:38:44.746Z,1.67
2022-11-09T15:41:17.583Z,1.55
2022-11-09T15:43:44.232Z,1.20
2022-11-09T15:46:19.531Z,2.50
2022-11-09T15:48:46.582Z,1.35
2022-11-09T15:51:14.018Z,1.88
2022-11-09T15:53:40.911Z,3.15
2022-11-09T15:56:10.601Z,3.35
2022-11-09T15:58:37.077Z,4.38
2022-11-09T16:01:03.593Z,4.50
2022-11-09T16:03:30.015Z,2.30
2022-11-09T16:05:56.496Z,1.90
2022-11-09T16:08:23.323Z,1.90
2022-11-09T16:10:50.182Z,1.27
2022-11-09T16:13:16.578Z,1.40
2022-11-09T16:15:43.061Z,1.00
2022-11-09T16:18:10.547Z,1.33
2022-11-09T16:20:37.018Z,1.25
2022-11-09T16:23:03.479Z,1.50
2022-11-09T16:25:29.883Z,1.83
2022-11-09T16:27:56.351Z,3.35
2022-11-09T16:30:22.961Z,5.25
2022-11-09T16:32:49.479Z,8.43
2022-11-09T16:35:26.709Z,11.10
2022-11-09T16:37:55.093Z,9.55
2022-11-09T16:40:22.300Z,7.68
2022-11-09T16:42:49.783Z,5.20
2022-11-09T16:45:17.310Z,5.90
2022-11-09T16:47:49.147Z,4.40
2022-11-09T16:50:15.889Z,5.55
2022-11-09T16:52:42.447Z,4.80
2022-11-09T16:55:09.663Z,3.10
2022-11-09T16:57:36.993Z,2.35
2022-11-09T17:00:06.292Z,1.95
2022-11-09T17:02:33.187Z,1.80
2022-11-09T17:04:59.681Z,1.63
2022-11-09T17:07:27.083Z,1.33
2022-11-09T17:09:53.629Z,1.50
2022-11-09T17:12:20.183Z,1.40
2022-11-09T17:14:46.605Z,1.17
2022-11-09T17:17:15.941Z,1.05
2022-11-09T17:19:46.847Z,1.23
2022-11-09T17:22:14.595Z,1.30
2022-11-09T17:24:41.347Z,1.38
2022-11-09T17:27:09.644Z,1.02
2022-11-09T17:29:39.910Z,1.30
2022-11-09T17:32:09.233Z,1.30
2022-11-09T17:34:36.139Z,1.95
2022-11-09T17:37:04.584Z,1.40
2022-11-09T17:39:31.533Z,2.00
2022-11-09T17:41:58.009Z,2.20
2022-11-09T17:44:24.484Z,1.38
2022-11-09T17:46:50.996Z,2.10
2022-11-09T17:49:17.455Z,1.80
2022-11-09T17:51:43.901Z,2.05
2022-11-09T17:54:10.350Z,1.58
2022-11-09T17:56:36.794Z,1.60
2022-11-09T17:59:05.349Z,1.20
2022-11-09T18:01:36.372Z,1.13
2022-11-09T18:04:06.959Z,1.80
2022-11-09T18:06:33.942Z,1.38
2022-11-09T18:09:34.406Z,1.48
2022-11-09T18:11:47.931Z,1.38
2022-11-09T18:14:15.830Z,2.20
2022-11-09T18:16:42.605Z,1.58
2022-11-09T18:19:09.289Z,2.10
2022-11-09T18:21:35.755Z,1.33
2022-11-09T18:24:02.568Z,1.85
2022-11-09T18:26:31.318Z,1.90
2022-11-09T18:28:58.252Z,2.20
2022-11-09T18:31:24.743Z,2.38
2022-11-09T18:33:51.316Z,2.70
2022-11-09T18:36:21.050Z,2.05
2022-11-09T18:38:47.880Z,2.58
2022-11-09T18:41:17.905Z,3.40
2022-11-09T18:43:45.027Z,2.97
2022-11-09T18:46:14.415Z,2.13
2022-11-09T18:48:41.379Z,2.25
2022-11-09T18:51:08.951Z,1.58
2022-11-09T18:53:40.879Z,1.60
2022-11-09T18:56:17.236Z,1.42
2022-11-09T18:58:43.713Z,2.00
2022-11-09T19:01:10.358Z,1.70
2022-11-09T19:03:37.305Z,1.88
2022-11-09T19:06:08.582Z,1.25
2022-11-09T19:08:54.052Z,1.70
2022-11-09T19:11:20.648Z,2.28
2022-11-09T19:13:47.237Z,2.33
2022-11-09T19:16:15.294Z,2.38
2022-11-09T19:18:42.437Z,1.90
2022-11-09T19:21:27.286Z,2.00
2022-11-09T19:23:54.046Z,2.10
2022-11-09T19:26:23.997Z,2.47
2022-11-09T19:28:50.485Z,2.50
2022-11-09T19:31:19.131Z,1.92
2022-11-09T19:33:45.710Z,1.98
2022-11-09T19:38:58.914Z,2.05
2022-11-09T19:41:25.785Z,2.00
2022-11-09T19:43:54.546Z,2.40
2022-11-09T19:46:21.959Z,1.75
2022-11-09T19:48:48.751Z,1.88
2022-11-09T19:51:16.937Z,2.22
2022-11-09T19:53:52.270Z,1.50
2022-11-09T19:56:19.519Z,1.63
2022-11-09T19:58:50.805Z,1.70
2022-11-09T20:01:17.906Z,1.88
2022-11-09T20:03:44.480Z,1.60
2022-11-09T20:06:10.939Z,1.70
2022-11-09T20:08:37.696Z,2.15
2022-11-09T20:11:09.999Z,1.90
2022-11-09T20:13:40.638Z,1.73
2022-11-09T20:16:09.039Z,1.70
2022-11-09T20:18:37.418Z,1.90
2022-11-09T20:21:04.674Z,2.00
2022-11-09T20:23:31.133Z,2.38
2022-11-09T20:26:09.318Z,2.38
2022-11-09T20:28:36.386Z,2.88
2022-11-09T20:31:14.073Z,2.83
2022-11-09T20:33:40.498Z,1.95
2022-11-09T20:36:07.173Z,2.72
2022-11-09T20:38:34.180Z,2.20
2022-11-09T20:41:03.327Z,2.33
2022-11-09T20:43:30.225Z,1.60
2022-11-09T20:46:02.353Z,2.00
2022-11-09T20:51:18.410Z,1.75
2022-11-09T20:53:46.207Z,1.65
2022-11-09T20:56:14.017Z,2.13
2022-11-09T20:58:40.781Z,1.90
2022-11-09T21:01:13.945Z,1.80
2022-11-09T21:03:41.011Z,2.17
2022-11-09T21:06:08.567Z,1.90
2022-11-09T21:08:35.395Z,1.73
2022-11-09T21:11:03.600Z,2.10
2022-11-09T21:13:30.358Z,1.98
2022-11-09T21:16:05.024Z,2.20
2022-11-09T21:18:31.597Z,1.88
2022-11-09T21:21:06.272Z,1.90
2022-11-09T21:23:51.448Z,1.70
2022-11-09T21:26:36.206Z,2.00
2022-11-09T21:29:22.185Z,2.42
2022-11-09T21:31:48.609Z,1.90
2022-11-09T21:34:15.105Z,1.98
2022-11-09T21:36:43.396Z,1.95
2022-11-09T21:39:10.890Z,2.22
2022-11-09T21:41:38.120Z,2.13
2022-11-09T21:44:06.473Z,2.15
2022-11-09T21:46:32.897Z,2.00
2022-11-09T21:48:59.659Z,2.10
2022-11-09T21:51:26.124Z,2.10
2022-11-09T21:53:52.635Z,2.10
2022-11-09T21:56:19.284Z,2.38
2022-11-09T21:58:47.431Z,2.50
2022-11-09T22:01:15.820Z,2.85
2022-11-09T22:03:42.647Z,1.75
2022-11-09T22:06:09.420Z,2.00
2022-11-09T22:08:35.897Z,2.20
2022-11-09T22:11:08.206Z,1.75
2022-11-09T22:13:53.935Z,2.08
2022-11-09T22:16:21.697Z,2.22
2022-11-09T22:19:06.566Z,2.15
2022-11-09T22:21:33.142Z,1.80
2022-11-09T22:24:00.554Z,1.73
2022-11-09T22:26:29.074Z,2.20
2022-11-09T22:28:56.818Z,1.75
2022-11-09T22:31:23.521Z,1.70
2022-11-09T22:33:50.063Z,2.30
2022-11-09T22:36:18.309Z,2.20
2022-11-09T22:38:46.031Z,2.42
2022-11-09T22:41:14.538Z,2.05
2022-11-09T22:43:43.195Z,2.20
2022-11-09T22:46:14.453Z,1.92
2022-11-09T22:48:42.534Z,1.90
2022-11-09T22:51:10.910Z,2.38
2022-11-09T22:53:37.406Z,2.65
2022-11-09T22:56:04.960Z,1.80
2022-11-09T22:58:31.400Z,2.38
2022-11-09T23:01:24.430Z,2.22
2022-11-09T23:03:51.725Z,2.13
2022-11-09T23:06:21.122Z,1.95
2022-11-09T23:08:47.901Z,2.15
2022-11-09T23:11:18.076Z,1.75
2022-11-09T23:13:47.817Z,2.13
2022-11-09T23:16:14.267Z,2.25
2022-11-09T23:18:56.216Z,3.58
2022-11-09T23:21:31.400Z,2.30
2022-11-09T23:24:03.654Z,2.10
2022-11-09T23:26:31.214Z,2.15
2022-11-09T23:28:57.828Z,2.00
2022-11-09T23:31:24.966Z,2.33
2022-11-09T23:33:54.307Z,2.28
2022-11-09T23:36:25.423Z,2.63
2022-11-09T23:38:52.184Z,2.53
2022-11-09T23:41:19.103Z,2.00
2022-11-09T23:43:49.174Z,2.33
2022-11-09T23:46:17.214Z,1.80
2022-11-09T23:48:44.127Z,1.83
2022-11-09T23:51:11.074Z,1.85
2022-11-09T23:53:38.106Z,2.08
2022-11-09T23:56:07.530Z,2.00
2022-11-09T23:58:34.193Z,1.80
